sensor_id;sensor_type;location;lat;lon;timestamp;pressure;altitude;pressure_sealevel;temperature;humidity
68508;BME280;55510;49.560;19.090;2022-12-24T00:02:07;95489.91;;;2.04;100.00
68508;BME280;55510;49.560;19.090;2022-12-24T00:05:08;95487.94;;;1.99;100.00
68508;BME280;55510;49.560;19.090;2022-12-24T00:08:10;95481.63;;;2.07;100.00
68508;BME280;55510;49.560;19.090;2022-12-24T00:11:11;95478.41;;;2.05;100.00
68508;BME280;55510;49.560;19.090;2022-12-24T00:14:12;95471.97;;;2.01;100.00
68508;BME280;55510;49.560;19.090;2022-12-24T00:17:12;95478.81;;;2.02;100.00
68508;BME280;55510;49.560;19.090;2022-12-24T00:20:13;95461.03;;;2.04;100.00
68508;BME280;55510;49.560;19.090;2022-12-24T00:23:15;95466.69;;;2.08;100.00
68508;BME280;55510;49.560;19.090;2022-12-24T00:26:16;95468.88;;;2.11;100.00
68508;BME280;55510;49.560;19.090;2022-12-24T00:29:16;95459.41;;;2.10;100.00
68508;BME280;55510;49.560;19.090;2022-12-24T00:32:17;95461.00;;;2.11;100.00
68508;BME280;55510;49.560;19.090;2022-12-24T00:35:17;95456.19;;;2.08;100.00
68508;BME280;55510;49.560;19.090;2022-12-24T00:38:18;95458.66;;;2.02;100.00
68508;BME280;55510;49.560;19.090;2022-12-24T00:41:22;95448.78;;;1.98;100.00
68508;BME280;55510;49.560;19.090;2022-12-24T00:44:28;95453.63;;;1.94;100.00
68508;BME280;55510;49.560;19.090;2022-12-24T00:47:29;95461.72;;;1.93;100.00
68508;BME280;55510;49.560;19.090;2022-12-24T00:50:30;95465.72;;;1.95;100.00
68508;BME280;55510;49.560;19.090;2022-12-24T00:53:30;95466.97;;;1.93;100.00
68508;BME280;55510;49.560;19.090;2022-12-24T00:56:31;95476.44;;;1.94;100.00
68508;BME280;55510;49.560;19.090;2022-12-24T00:59:32;95482.06;;;1.97;100.00
68508;BME280;55510;49.560;19.090;2022-12-24T01:02:33;95478.81;;;2.02;100.00
68508;BME280;55510;49.560;19.090;2022-12-24T01:05:33;95481.25;;;2.03;100.00
68508;BME280;55510;49.560;19.090;2022-12-24T01:08:35;95483.28;;;2.01;100.00
68508;BME280;55510;49.560;19.090;2022-12-24T01:11:36;95479.16;;;2.12;100.00
68508;BME280;55510;49.560;19.090;2022-12-24T01:14:37;95471.84;;;2.21;100.00
68508;BME280;55510;49.560;19.090;2022-12-24T01:17:38;95484.56;;;2.17;100.00
68508;BME280;55510;49.560;19.090;2022-12-24T01:20:40;95480.88;;;2.25;100.00
68508;BME280;55510;49.560;19.090;2022-12-24T01:23:41;95478.38;;;2.12;100.00
68508;BME280;55510;49.560;19.090;2022-12-24T01:26:42;95487.03;;;2.12;100.00
68508;BME280;55510;49.560;19.090;2022-12-24T01:29:43;95498.00;;;2.02;100.00
68508;BME280;55510;49.560;19.090;2022-12-24T01:32:43;95492.94;;;2.08;100.00
68508;BME280;55510;49.560;19.090;2022-12-24T01:35:44;95490.66;;;2.11;100.00
68508;BME280;55510;49.560;19.090;2022-12-24T01:38:45;95492.88;;;2.14;100.00
68508;BME280;55510;49.560;19.090;2022-12-24T01:41:46;95488.09;;;2.05;100.00
68508;BME280;55510;49.560;19.090;2022-12-24T01:48:52;95496.56;;;2.07;100.00
68508;BME280;55510;49.560;19.090;2022-12-24T01:51:58;95478.81;;;2.02;100.00
68508;BME280;55510;49.560;19.090;2022-12-24T01:55:13;95486.44;;;2.10;100.00
68508;BME280;55510;49.560;19.090;2022-12-24T01:58:16;95470.75;;;2.03;100.00
68508;BME280;55510;49.560;19.090;2022-12-24T02:01:17;95453.00;;;1.99;100.00
68508;BME280;55510;49.560;19.090;2022-12-24T02:07:34;95450.22;;;1.94;100.00
68508;BME280;55510;49.560;19.090;2022-12-24T02:10:35;95459.28;;;1.98;100.00
68508;BME280;55510;49.560;19.090;2022-12-24T02:13:36;95460.63;;;2.07;100.00
68508;BME280;55510;49.560;19.090;2022-12-24T02:16:55;95462.38;;;2.13;100.00
68508;BME280;55510;49.560;19.090;2022-12-24T02:30:44;95470.84;;;2.92;100.00
68508;BME280;55510;49.560;19.090;2022-12-24T02:33:55;95472.69;;;3.10;100.00
68508;BME280;55510;49.560;19.090;2022-12-24T02:40:10;95502.72;;;3.39;100.00
68508;BME280;55510;49.560;19.090;2022-12-24T02:43:17;95482.59;;;3.63;100.00
68508;BME280;55510;49.560;19.090;2022-12-24T02:46:25;95492.25;;;3.70;100.00
68508;BME280;55510;49.560;19.090;2022-12-24T02:49:27;95494.06;;;3.69;100.00
68508;BME280;55510;49.560;19.090;2022-12-24T03:05:24;95517.69;;;3.57;100.00
68508;BME280;55510;49.560;19.090;2022-12-24T03:08:43;95522.38;;;3.55;100.00
68508;BME280;55510;49.560;19.090;2022-12-24T03:11:54;95538.94;;;3.56;100.00
68508;BME280;55510;49.560;19.090;2022-12-24T03:14:58;95546.47;;;3.52;100.00
68508;BME280;55510;49.560;19.090;2022-12-24T03:18:01;95554.22;;;3.47;100.00
68508;BME280;55510;49.560;19.090;2022-12-24T03:21:06;95555.63;;;3.50;100.00
68508;BME280;55510;49.560;19.090;2022-12-24T03:24:09;95552.09;;;3.56;100.00
68508;BME280;55510;49.560;19.090;2022-12-24T03:27:11;95562.63;;;3.56;100.00
68508;BME280;55510;49.560;19.090;2022-12-24T03:30:13;95578.22;;;3.57;100.00
68508;BME280;55510;49.560;19.090;2022-12-24T03:33:15;95579.81;;;3.58;100.00
68508;BME280;55510;49.560;19.090;2022-12-24T03:36:16;95585.88;;;3.59;100.00
68508;BME280;55510;49.560;19.090;2022-12-24T03:39:17;95582.22;;;3.60;100.00
68508;BME280;55510;49.560;19.090;2022-12-24T03:42:18;95588.06;;;3.62;100.00
68508;BME280;55510;49.560;19.090;2022-12-24T03:45:19;95592.97;;;3.58;100.00
68508;BME280;55510;49.560;19.090;2022-12-24T03:48:20;95595.66;;;3.52;100.00
68508;BME280;55510;49.560;19.090;2022-12-24T03:51:23;95587.53;;;3.53;100.00
68508;BME280;55510;49.560;19.090;2022-12-24T03:54:24;95584.91;;;3.53;100.00
68508;BME280;55510;49.560;19.090;2022-12-24T03:57:25;95585.28;;;3.57;100.00
68508;BME280;55510;49.560;19.090;2022-12-24T04:00:25;95584.91;;;3.53;100.00
68508;BME280;55510;49.560;19.090;2022-12-24T04:03:26;95582.28;;;3.53;100.00
68508;BME280;55510;49.560;19.090;2022-12-24T04:06:27;95582.50;;;3.52;100.00
68508;BME280;55510;49.560;19.090;2022-12-24T04:09:27;95598.06;;;3.53;100.00
68508;BME280;55510;49.560;19.090;2022-12-24T04:12:28;95597.75;;;3.43;100.00
68508;BME280;55510;49.560;19.090;2022-12-24T04:15:29;95587.97;;;3.31;100.00
68508;BME280;55510;49.560;19.090;2022-12-24T04:18:29;95588.25;;;3.23;100.00
68508;BME280;55510;49.560;19.090;2022-12-24T04:21:31;95585.81;;;3.22;100.00
68508;BME280;55510;49.560;19.090;2022-12-24T04:24:31;95594.22;;;3.12;100.00
68508;BME280;55510;49.560;19.090;2022-12-24T04:27:32;95582.69;;;3.13;100.00
68508;BME280;55510;49.560;19.090;2022-12-24T04:30:32;95579.28;;;3.05;100.00
68508;BME280;55510;49.560;19.090;2022-12-24T04:33:34;95585.19;;;3.01;100.00
68508;BME280;55510;49.560;19.090;2022-12-24T04:36:34;95586.84;;;2.95;100.00
68508;BME280;55510;49.560;19.090;2022-12-24T04:39:35;95586.84;;;2.95;100.00
68508;BME280;55510;49.560;19.090;2022-12-24T04:42:36;95585.25;;;2.94;100.00
68508;BME280;55510;49.560;19.090;2022-12-24T04:45:36;95592.94;;;2.96;100.00
68508;BME280;55510;49.560;19.090;2022-12-24T04:48:37;95590.94;;;2.91;100.00
68508;BME280;55510;49.560;19.090;2022-12-24T04:51:38;95597.03;;;2.85;100.00
68508;BME280;55510;49.560;19.090;2022-12-24T04:54:39;95603.94;;;2.79;100.00
68508;BME280;55510;49.560;19.090;2022-12-24T04:57:39;95612.25;;;2.76;100.00
68508;BME280;55510;49.560;19.090;2022-12-24T05:00:40;95616.72;;;2.75;100.00
68508;BME280;55510;49.560;19.090;2022-12-24T05:03:41;95615.31;;;2.73;100.00
68508;BME280;55510;49.560;19.090;2022-12-24T05:06:41;95610.31;;;2.65;100.00
68508;BME280;55510;49.560;19.090;2022-12-24T05:09:43;95611.34;;;2.64;100.00
68508;BME280;55510;49.560;19.090;2022-12-24T05:12:43;95614.16;;;2.62;100.00
68508;BME280;55510;49.560;19.090;2022-12-24T05:15:44;95624.06;;;2.60;100.00
68508;BME280;55510;49.560;19.090;2022-12-24T05:18:45;95628.31;;;2.61;100.00
68508;BME280;55510;49.560;19.090;2022-12-24T05:21:46;95625.09;;;2.59;100.00
68508;BME280;55510;49.560;19.090;2022-12-24T05:25:08;95627.72;;;2.59;100.00
68508;BME280;55510;49.560;19.090;2022-12-24T05:28:27;95630.41;;;2.52;100.00
68508;BME280;55510;49.560;19.090;2022-12-24T05:31:29;95631.59;;;2.56;100.00
68508;BME280;55510;49.560;19.090;2022-12-24T05:34:30;95637.63;;;2.57;100.00
68508;BME280;55510;49.560;19.090;2022-12-24T05:37:31;95634.41;;;2.55;100.00
68508;BME280;55510;49.560;19.090;2022-12-24T05:40:32;95638.88;;;2.54;100.00
68508;BME280;55510;49.560;19.090;2022-12-24T05:43:32;95636.03;;;2.56;100.00
68508;BME280;55510;49.560;19.090;2022-12-24T05:46:33;95637.69;;;2.50;100.00
68508;BME280;55510;49.560;19.090;2022-12-24T05:49:34;95636.88;;;2.50;100.00
68508;BME280;55510;49.560;19.090;2022-12-24T05:52:34;95641.72;;;2.53;100.00
68508;BME280;55510;49.560;19.090;2022-12-24T05:55:35;95642.94;;;2.50;100.00
68508;BME280;55510;49.560;19.090;2022-12-24T05:58:37;95652.88;;;2.48;100.00
68508;BME280;55510;49.560;19.090;2022-12-24T06:01:37;95654.66;;;2.47;100.00
68508;BME280;55510;49.560;19.090;2022-12-24T06:04:38;95645.94;;;2.54;100.00
68508;BME280;55510;49.560;19.090;2022-12-24T06:07:39;95651.19;;;2.54;100.00
68508;BME280;55510;49.560;19.090;2022-12-24T06:10:40;95661.28;;;2.57;100.00
68508;BME280;55510;49.560;19.090;2022-12-24T06:13:41;95667.97;;;2.53;100.00
68508;BME280;55510;49.560;19.090;2022-12-24T06:16:42;95670.41;;;2.54;100.00
68508;BME280;55510;49.560;19.090;2022-12-24T06:19:43;95671.63;;;2.52;100.00
68508;BME280;55510;49.560;19.090;2022-12-24T06:22:44;95682.53;;;2.49;100.00
68508;BME280;55510;49.560;19.090;2022-12-24T06:25:45;95687.78;;;2.49;100.00
68508;BME280;55510;49.560;19.090;2022-12-24T06:28:47;95691.44;;;2.47;100.00
68508;BME280;55510;49.560;19.090;2022-12-24T06:31:48;95678.91;;;2.50;100.00
68508;BME280;55510;49.560;19.090;2022-12-24T06:34:49;95678.72;;;2.51;100.00
68508;BME280;55510;49.560;19.090;2022-12-24T06:37:49;95681.94;;;2.46;100.00
68508;BME280;55510;49.560;19.090;2022-12-24T06:40:50;95681.78;;;2.41;100.00
68508;BME280;55510;49.560;19.090;2022-12-24T06:43:52;95684.81;;;2.38;100.00
68508;BME280;55510;49.560;19.090;2022-12-24T06:46:52;95691.09;;;2.30;100.00
68508;BME280;55510;49.560;19.090;2022-12-24T06:49:53;95698.97;;;2.30;100.00
68508;BME280;55510;49.560;19.090;2022-12-24T06:52:54;95693.53;;;2.32;100.00
68508;BME280;55510;49.560;19.090;2022-12-24T06:56:06;95709.28;;;2.32;100.00
68508;BME280;55510;49.560;19.090;2022-12-24T06:59:07;95716.16;;;2.33;100.00
68508;BME280;55510;49.560;19.090;2022-12-24T07:02:08;95715.56;;;2.31;100.00
68508;BME280;55510;49.560;19.090;2022-12-24T07:05:10;95721.59;;;2.31;100.00
68508;BME280;55510;49.560;19.090;2022-12-24T07:08:11;95719.31;;;2.42;100.00
68508;BME280;55510;49.560;19.090;2022-12-24T07:11:12;95722.78;;;2.42;100.00
68508;BME280;55510;49.560;19.090;2022-12-24T07:14:13;95724.97;;;2.45;100.00
68508;BME280;55510;49.560;19.090;2022-12-24T07:17:14;95731.44;;;2.50;100.00
68508;BME280;55510;49.560;19.090;2022-12-24T07:20:14;95733.47;;;2.47;100.00
68508;BME280;55510;49.560;19.090;2022-12-24T07:23:15;95743.13;;;2.54;100.00
68508;BME280;55510;49.560;19.090;2022-12-24T07:26:16;95747.97;;;2.57;100.00
68508;BME280;55510;49.560;19.090;2022-12-24T07:29:16;95751.78;;;2.61;100.00
68508;BME280;55510;49.560;19.090;2022-12-24T07:32:17;95743.72;;;2.63;100.00
68508;BME280;55510;49.560;19.090;2022-12-24T07:35:19;95743.91;;;2.61;100.00
68508;BME280;55510;49.560;19.090;2022-12-24T07:38:20;95752.00;;;2.66;100.00
68508;BME280;55510;49.560;19.090;2022-12-24T07:41:21;95756.81;;;2.69;100.00
68508;BME280;55510;49.560;19.090;2022-12-24T07:44:22;95764.88;;;2.74;100.00
68508;BME280;55510;49.560;19.090;2022-12-24T07:47:23;95761.59;;;2.86;100.00
68508;BME280;55510;49.560;19.090;2022-12-24T07:50:23;95758.34;;;2.90;100.00
68508;BME280;55510;49.560;19.090;2022-12-24T07:53:25;95775.94;;;2.90;100.00
68508;BME280;55510;49.560;19.090;2022-12-24T07:56:26;95768.03;;;2.90;100.00
68508;BME280;55510;49.560;19.090;2022-12-24T07:59:27;95774.47;;;2.94;100.00
68508;BME280;55510;49.560;19.090;2022-12-24T08:02:28;95781.59;;;2.94;100.00
68508;BME280;55510;49.560;19.090;2022-12-24T08:05:33;95783.38;;;2.93;100.00
68508;BME280;55510;49.560;19.090;2022-12-24T08:08:34;95788.03;;;2.98;100.00
68508;BME280;55510;49.560;19.090;2022-12-24T08:11:35;95784.75;;;3.02;100.00
68508;BME280;55510;49.560;19.090;2022-12-24T08:14:36;95780.88;;;3.12;100.00
68508;BME280;55510;49.560;19.090;2022-12-24T08:17:37;95795.38;;;3.21;100.00
68508;BME280;55510;49.560;19.090;2022-12-24T08:20:39;95781.97;;;3.29;100.00
68508;BME280;55510;49.560;19.090;2022-12-24T08:23:40;95777.06;;;3.40;100.00
68508;BME280;55510;49.560;19.090;2022-12-24T08:26:41;95794.19;;;3.49;100.00
68508;BME280;55510;49.560;19.090;2022-12-24T08:29:41;95792.75;;;3.53;100.00
68508;BME280;55510;49.560;19.090;2022-12-24T08:32:42;95803.94;;;3.74;100.00
68508;BME280;55510;49.560;19.090;2022-12-24T08:35:53;95812.97;;;3.85;100.00
68508;BME280;55510;49.560;19.090;2022-12-24T08:38:54;95819.47;;;3.82;100.00
68508;BME280;55510;49.560;19.090;2022-12-24T08:41:55;95827.00;;;3.79;100.00
68508;BME280;55510;49.560;19.090;2022-12-24T08:44:56;95816.09;;;3.75;100.00
68508;BME280;55510;49.560;19.090;2022-12-24T08:47:58;95825.44;;;3.71;100.00
68508;BME280;55510;49.560;19.090;2022-12-24T08:50:59;95822.03;;;3.63;100.00
68508;BME280;55510;49.560;19.090;2022-12-24T08:54:00;95824.50;;;3.58;100.00
68508;BME280;55510;49.560;19.090;2022-12-24T08:57:01;95821.47;;;3.55;100.00
68508;BME280;55510;49.560;19.090;2022-12-24T09:00:04;95826.72;;;3.61;100.00
68508;BME280;55510;49.560;19.090;2022-12-24T09:03:05;95841.47;;;3.62;100.00
68508;BME280;55510;49.560;19.090;2022-12-24T09:06:06;95841.31;;;3.57;100.00
68508;BME280;55510;49.560;19.090;2022-12-24T09:09:07;95851.59;;;3.59;100.00
68508;BME280;55510;49.560;19.090;2022-12-24T09:12:08;95850.22;;;3.56;100.00
68508;BME280;55510;49.560;19.090;2022-12-24T09:15:09;95859.94;;;3.56;100.00
68508;BME280;55510;49.560;19.090;2022-12-24T09:18:10;95860.16;;;3.54;100.00
68508;BME280;55510;49.560;19.090;2022-12-24T09:21:13;95857.31;;;3.49;100.00
68508;BME280;55510;49.560;19.090;2022-12-24T09:24:14;95858.94;;;3.50;100.00
68508;BME280;55510;49.560;19.090;2022-12-24T09:27:15;95861.28;;;3.65;100.00
68508;BME280;55510;49.560;19.090;2022-12-24T09:30:16;95866.50;;;3.72;100.00
68508;BME280;55510;49.560;19.090;2022-12-24T09:33:16;95863.44;;;3.75;100.00
68508;BME280;55510;49.560;19.090;2022-12-24T09:36:18;95858.53;;;3.85;100.00
68508;BME280;55510;49.560;19.090;2022-12-24T09:39:19;95861.47;;;3.96;100.00
68508;BME280;55510;49.560;19.090;2022-12-24T09:45:30;95871.44;;;4.44;100.00
68508;BME280;55510;49.560;19.090;2022-12-24T09:48:37;95880.22;;;4.57;100.00
68508;BME280;55510;49.560;19.090;2022-12-24T09:52:00;95888.00;;;4.70;100.00
68508;BME280;55510;49.560;19.090;2022-12-24T09:55:18;95891.34;;;4.59;100.00
68508;BME280;55510;49.560;19.090;2022-12-24T09:58:28;95881.69;;;4.71;100.00
68508;BME280;55510;49.560;19.090;2022-12-24T10:01:33;95890.91;;;4.62;100.00
68508;BME280;55510;49.560;19.090;2022-12-24T10:04:33;95889.03;;;4.69;100.00
68508;BME280;55510;49.560;19.090;2022-12-24T10:07:53;95890.06;;;4.87;100.00
68508;BME280;55510;49.560;19.090;2022-12-24T10:11:22;95899.75;;;4.93;100.00
68508;BME280;55510;49.560;19.090;2022-12-24T10:24:15;95902.00;;;5.08;100.00
68508;BME280;55510;49.560;19.090;2022-12-24T10:27:23;95903.69;;;5.02;100.00
68508;BME280;55510;49.560;19.090;2022-12-24T10:30:26;95916.72;;;4.97;100.00
68508;BME280;55510;49.560;19.090;2022-12-24T10:33:33;95916.16;;;4.95;100.00
68508;BME280;55510;49.560;19.090;2022-12-24T10:36:35;95922.59;;;4.99;100.00
68508;BME280;55510;49.560;19.090;2022-12-24T10:39:36;95916.06;;;5.20;100.00
68508;BME280;55510;49.560;19.090;2022-12-24T10:42:41;95927.06;;;5.36;100.00
68508;BME280;55510;49.560;19.090;2022-12-24T10:45:48;95926.13;;;5.30;100.00
68508;BME280;55510;49.560;19.090;2022-12-24T10:48:55;95926.03;;;5.37;100.00
68508;BME280;55510;49.560;19.090;2022-12-24T10:52:19;95931.06;;;5.57;100.00
68508;BME280;55510;49.560;19.090;2022-12-24T10:55:22;95936.78;;;5.54;100.00
68508;BME280;55510;49.560;19.090;2022-12-24T10:58:24;95932.66;;;5.58;100.00
68508;BME280;55510;49.560;19.090;2022-12-24T11:01:45;95949.78;;;5.56;100.00
68508;BME280;55510;49.560;19.090;2022-12-24T11:04:48;95948.75;;;5.57;100.00
68508;BME280;55510;49.560;19.090;2022-12-24T11:08:18;95949.78;;;5.56;100.00
68508;BME280;55510;49.560;19.090;2022-12-24T11:11:20;95950.50;;;5.63;100.00
68508;BME280;55510;49.560;19.090;2022-12-24T11:14:20;95950.50;;;5.63;99.67
68508;BME280;55510;49.560;19.090;2022-12-24T11:17:22;95949.22;;;5.65;99.95
68508;BME280;55510;49.560;19.090;2022-12-24T11:20:26;95954.06;;;5.69;98.85
68508;BME280;55510;49.560;19.090;2022-12-24T11:23:27;95950.56;;;5.87;98.13
68508;BME280;55510;49.560;19.090;2022-12-24T11:26:29;95962.84;;;5.81;97.49
68508;BME280;55510;49.560;19.090;2022-12-24T11:29:31;95959.97;;;5.83;97.83
68508;BME280;55510;49.560;19.090;2022-12-24T11:32:31;95971.25;;;5.90;96.76
68508;BME280;55510;49.560;19.090;2022-12-24T11:35:39;95974.13;;;5.88;95.63
68508;BME280;55510;49.560;19.090;2022-12-24T11:38:51;95979.75;;;5.92;95.33
68508;BME280;55510;49.560;19.090;2022-12-24T11:41:53;95973.31;;;6.06;94.78
68508;BME280;55510;49.560;19.090;2022-12-24T11:44:55;95986.19;;;5.96;94.66
68508;BME280;55510;49.560;19.090;2022-12-24T11:47:57;95990.69;;;5.95;95.15
68508;BME280;55510;49.560;19.090;2022-12-24T11:51:08;96000.75;;;5.87;95.46
68508;BME280;55510;49.560;19.090;2022-12-24T11:54:23;96005.00;;;5.88;95.01
68508;BME280;55510;49.560;19.090;2022-12-24T11:57:42;95991.53;;;5.77;95.42
68508;BME280;55510;49.560;19.090;2022-12-24T12:00:47;96008.31;;;5.83;95.24
68508;BME280;55510;49.560;19.090;2022-12-24T12:04:02;96014.66;;;5.94;94.93
68508;BME280;55510;49.560;19.090;2022-12-24T12:10:24;96015.44;;;5.83;94.17
68508;BME280;55510;49.560;19.090;2022-12-24T12:13:29;96027.84;;;5.82;94.17
68508;BME280;55510;49.560;19.090;2022-12-24T12:20:28;96042.03;;;6.00;92.96
68508;BME280;55510;49.560;19.090;2022-12-24T12:23:33;96053.56;;;5.87;93.10
68508;BME280;55510;49.560;19.090;2022-12-24T12:26:35;96055.13;;;5.76;93.60
68508;BME280;55510;49.560;19.090;2022-12-24T12:29:41;96064.22;;;5.61;94.17
68508;BME280;55510;49.560;19.090;2022-12-24T12:32:57;96059.06;;;5.66;94.27
68508;BME280;55510;49.560;19.090;2022-12-24T12:36:00;96051.25;;;5.60;94.91
68508;BME280;55510;49.560;19.090;2022-12-24T12:39:02;96061.44;;;5.56;95.41
68508;BME280;55510;49.560;19.090;2022-12-24T12:46:13;96068.47;;;5.44;95.72
68508;BME280;55510;49.560;19.090;2022-12-24T12:55:57;96087.38;;;5.59;94.69
68508;BME280;55510;49.560;19.090;2022-12-24T12:59:18;96100.03;;;5.50;94.78
68508;BME280;55510;49.560;19.090;2022-12-24T13:02:47;96096.91;;;5.60;94.27
68508;BME280;55510;49.560;19.090;2022-12-24T13:22:20;96134.84;;;5.66;93.30
68508;BME280;55510;49.560;19.090;2022-12-24T13:25:34;96136.50;;;5.60;92.70
68508;BME280;55510;49.560;19.090;2022-12-24T13:28:35;96144.31;;;5.48;93.34
68508;BME280;55510;49.560;19.090;2022-12-24T13:31:36;96134.31;;;5.57;93.54
68508;BME280;55510;49.560;19.090;2022-12-24T13:34:38;96146.34;;;5.53;93.35
68508;BME280;55510;49.560;19.090;2022-12-24T13:37:39;96153.66;;;5.51;92.59
68508;BME280;55510;49.560;19.090;2022-12-24T13:40:39;96164.34;;;5.37;93.23
68508;BME280;55510;49.560;19.090;2022-12-24T13:50:23;96179.94;;;5.14;95.01
68508;BME280;55510;49.560;19.090;2022-12-24T13:53:38;96173.03;;;5.13;95.53
68508;BME280;55510;49.560;19.090;2022-12-24T13:56:41;96185.19;;;5.14;95.54
68508;BME280;55510;49.560;19.090;2022-12-24T13:59:41;96191.19;;;5.28;94.95
68508;BME280;55510;49.560;19.090;2022-12-24T14:06:07;96191.53;;;5.38;94.04
68508;BME280;55510;49.560;19.090;2022-12-24T14:09:16;96203.78;;;5.26;93.75
68508;BME280;55510;49.560;19.090;2022-12-24T14:12:45;96205.53;;;5.06;94.28
68508;BME280;55510;49.560;19.090;2022-12-24T14:19:14;96208.88;;;4.88;95.31
68508;BME280;55510;49.560;19.090;2022-12-24T14:22:39;96210.59;;;4.69;96.15
68508;BME280;55510;49.560;19.090;2022-12-24T14:25:43;96221.16;;;4.62;96.96
68508;BME280;55510;49.560;19.090;2022-12-24T14:28:56;96223.84;;;4.56;97.28
68508;BME280;55510;49.560;19.090;2022-12-24T14:31:59;96226.31;;;4.50;97.59
68508;BME280;55510;49.560;19.090;2022-12-24T14:35:27;96225.09;;;4.46;98.34
68508;BME280;55510;49.560;19.090;2022-12-24T14:38:29;96228.97;;;4.37;98.63
68508;BME280;55510;49.560;19.090;2022-12-24T14:41:45;96234.44;;;4.42;99.55
68508;BME280;55510;49.560;19.090;2022-12-24T14:48:30;96239.72;;;4.42;99.67
68508;BME280;55510;49.560;19.090;2022-12-24T14:51:40;96245.38;;;4.39;99.58
68508;BME280;55510;49.560;19.090;2022-12-24T14:54:44;96255.31;;;4.50;100.00
68508;BME280;55510;49.560;19.090;2022-12-24T14:57:45;96265.06;;;4.43;100.00
68508;BME280;55510;49.560;19.090;2022-12-24T15:00:45;96273.56;;;4.32;100.00
68508;BME280;55510;49.560;19.090;2022-12-24T15:03:59;96291.03;;;4.13;100.00
68508;BME280;55510;49.560;19.090;2022-12-24T15:07:00;96297.53;;;4.03;100.00
68508;BME280;55510;49.560;19.090;2022-12-24T15:10:16;96298.34;;;3.97;100.00
68508;BME280;55510;49.560;19.090;2022-12-24T15:16:34;96299.75;;;3.86;100.00
68508;BME280;55510;49.560;19.090;2022-12-24T15:19:38;96300.78;;;3.79;100.00
68508;BME280;55510;49.560;19.090;2022-12-24T15:22:41;96312.53;;;3.62;100.00
68508;BME280;55510;49.560;19.090;2022-12-24T15:25:43;96310.28;;;3.53;100.00
68508;BME280;55510;49.560;19.090;2022-12-24T15:28:44;96308.84;;;3.50;100.00
68508;BME280;55510;49.560;19.090;2022-12-24T15:31:51;96318.56;;;3.50;100.00
68508;BME280;55510;49.560;19.090;2022-12-24T15:34:53;96315.13;;;3.56;100.00
68508;BME280;55510;49.560;19.090;2022-12-24T15:37:57;96325.03;;;3.54;100.00
68508;BME280;55510;49.560;19.090;2022-12-24T15:40:59;96326.47;;;3.63;100.00
68508;BME280;55510;49.560;19.090;2022-12-24T15:44:02;96326.28;;;3.78;100.00
68508;BME280;55510;49.560;19.090;2022-12-24T15:47:06;96318.59;;;3.83;100.00
68508;BME280;55510;49.560;19.090;2022-12-24T15:53:40;96334.59;;;3.75;100.00
68508;BME280;55510;49.560;19.090;2022-12-24T15:56:44;96341.66;;;3.74;100.00
68508;BME280;55510;49.560;19.090;2022-12-24T15:59:50;96341.66;;;3.74;100.00
68508;BME280;55510;49.560;19.090;2022-12-24T16:02:52;96355.06;;;3.93;100.00
68508;BME280;55510;49.560;19.090;2022-12-24T16:12:35;96359.91;;;3.83;100.00
68508;BME280;55510;49.560;19.090;2022-12-24T16:15:46;96371.63;;;3.73;100.00
68508;BME280;55510;49.560;19.090;2022-12-24T16:18:53;96369.63;;;3.69;100.00
68508;BME280;55510;49.560;19.090;2022-12-24T16:21:57;96382.56;;;3.63;100.00
68508;BME280;55510;49.560;19.090;2022-12-24T16:24:59;96382.97;;;3.74;100.00
68508;BME280;55510;49.560;19.090;2022-12-24T16:28:00;96380.53;;;3.72;100.00
68508;BME280;55510;49.560;19.090;2022-12-24T16:31:03;96381.56;;;3.65;100.00
68508;BME280;55510;49.560;19.090;2022-12-24T16:34:04;96390.66;;;3.62;100.00
68508;BME280;55510;49.560;19.090;2022-12-24T16:37:05;96396.50;;;3.51;100.00
68508;BME280;55510;49.560;19.090;2022-12-24T16:40:13;96402.19;;;3.54;100.00
68508;BME280;55510;49.560;19.090;2022-12-24T16:43:13;96395.50;;;3.58;100.00
68508;BME280;55510;49.560;19.090;2022-12-24T16:46:33;96384.34;;;3.50;100.00
68508;BME280;55510;49.560;19.090;2022-12-24T16:49:35;96389.38;;;3.38;100.00
68508;BME280;55510;49.560;19.090;2022-12-24T16:52:36;96401.09;;;3.42;100.00
68508;BME280;55510;49.560;19.090;2022-12-24T16:55:37;96407.38;;;3.34;100.00
68508;BME280;55510;49.560;19.090;2022-12-24T16:58:38;96413.59;;;3.26;100.00
68508;BME280;55510;49.560;19.090;2022-12-24T17:01:38;96416.91;;;3.42;100.00
68508;BME280;55510;49.560;19.090;2022-12-24T17:04:39;96422.75;;;3.37;100.00
68508;BME280;55510;49.560;19.090;2022-12-24T17:07:40;96414.63;;;3.25;100.00
68508;BME280;55510;49.560;19.090;2022-12-24T17:10:49;96417.56;;;3.09;100.00
68508;BME280;55510;49.560;19.090;2022-12-24T17:13:49;96421.19;;;3.01;100.00
68508;BME280;55510;49.560;19.090;2022-12-24T17:16:50;96422.81;;;3.02;100.00
68508;BME280;55510;49.560;19.090;2022-12-24T17:19:51;96430.63;;;2.95;100.00
68508;BME280;55510;49.560;19.090;2022-12-24T17:22:51;96428.75;;;2.82;100.00
68508;BME280;55510;49.560;19.090;2022-12-24T17:25:52;96426.28;;;2.74;100.00
68508;BME280;55510;49.560;19.090;2022-12-24T17:28:54;96431.13;;;2.70;100.00
68508;BME280;55510;49.560;19.090;2022-12-24T17:31:54;96437.13;;;2.64;100.00
68508;BME280;55510;49.560;19.090;2022-12-24T17:34:55;96438.47;;;2.53;100.00
68508;BME280;55510;49.560;19.090;2022-12-24T17:37:59;96450.53;;;2.47;100.00
68508;BME280;55510;49.560;19.090;2022-12-24T17:41:05;96456.34;;;2.43;100.00
68508;BME280;55510;49.560;19.090;2022-12-24T17:44:08;96462.44;;;2.43;100.00
68508;BME280;55510;49.560;19.090;2022-12-24T17:47:11;96461.25;;;2.46;100.00
68508;BME280;55510;49.560;19.090;2022-12-24T17:50:12;96461.66;;;2.50;100.00
68508;BME280;55510;49.560;19.090;2022-12-24T17:53:13;96472.66;;;2.60;100.00
68508;BME280;55510;49.560;19.090;2022-12-24T17:56:15;96465.84;;;2.66;100.00